sensor_id;sensor_type;location;lat;lon;timestamp;P1;durP1;ratioP1;P2;durP2;ratioP2
48268;SDS011;34088;52.232;5.196;2022-09-28T00:01:20;13.13;;;6.57;;
48268;SDS011;34088;52.232;5.196;2022-09-28T00:03:49;16.38;;;7.45;;
48268;SDS011;34088;52.232;5.196;2022-09-28T00:06:19;15.85;;;8.23;;
48268;SDS011;34088;52.232;5.196;2022-09-28T00:08:48;21.45;;;9.43;;
48268;SDS011;34088;52.232;5.196;2022-09-28T00:11:14;22.85;;;10.93;;
48268;SDS011;34088;52.232;5.196;2022-09-28T00:13:43;18.92;;;10.75;;
48268;SDS011;34088;52.232;5.196;2022-09-28T00:16:13;23.65;;;12.57;;
48268;SDS011;34088;52.232;5.196;2022-09-28T00:18:41;20.63;;;12.15;;
48268;SDS011;34088;52.232;5.196;2022-09-28T00:23:37;23.52;;;12.35;;
48268;SDS011;34088;52.232;5.196;2022-09-28T00:26:22;20.38;;;12.10;;
48268;SDS011;34088;52.232;5.196;2022-09-28T00:28:51;20.90;;;12.15;;
48268;SDS011;34088;52.232;5.196;2022-09-28T00:31:19;21.60;;;11.80;;
48268;SDS011;34088;52.232;5.196;2022-09-28T00:33:51;19.83;;;11.80;;
48268;SDS011;34088;52.232;5.196;2022-09-28T00:36:21;21.40;;;11.80;;
48268;SDS011;34088;52.232;5.196;2022-09-28T00:38:47;21.10;;;12.13;;
48268;SDS011;34088;52.232;5.196;2022-09-28T00:41:13;23.33;;;11.68;;
48268;SDS011;34088;52.232;5.196;2022-09-28T00:43:40;17.27;;;10.88;;
48268;SDS011;34088;52.232;5.196;2022-09-28T00:46:13;20.00;;;11.48;;
48268;SDS011;34088;52.232;5.196;2022-09-28T00:49:00;16.00;;;10.82;;
48268;SDS011;34088;52.232;5.196;2022-09-28T00:51:31;21.30;;;11.00;;
48268;SDS011;34088;52.232;5.196;2022-09-28T00:53:58;18.63;;;10.98;;
48268;SDS011;34088;52.232;5.196;2022-09-28T00:56:26;19.35;;;10.38;;
48268;SDS011;34088;52.232;5.196;2022-09-28T00:58:53;15.80;;;9.90;;
48268;SDS011;34088;52.232;5.196;2022-09-28T01:01:19;16.02;;;8.70;;
48268;SDS011;34088;52.232;5.196;2022-09-28T01:03:46;16.52;;;9.50;;
48268;SDS011;34088;52.232;5.196;2022-09-28T01:06:22;16.02;;;8.77;;
48268;SDS011;34088;52.232;5.196;2022-09-28T01:08:51;18.13;;;9.10;;
48268;SDS011;34088;52.232;5.196;2022-09-28T01:11:20;13.00;;;6.88;;
48268;SDS011;34088;52.232;5.196;2022-09-28T01:13:46;13.93;;;7.68;;
48268;SDS011;34088;52.232;5.196;2022-09-28T01:22:24;9.85;;;6.32;;
48268;SDS011;34088;52.232;5.196;2022-09-28T01:25:09;11.15;;;6.13;;
48268;SDS011;34088;52.232;5.196;2022-09-28T01:27:46;10.05;;;5.75;;
48268;SDS011;34088;52.232;5.196;2022-09-28T01:32:57;12.50;;;6.18;;
48268;SDS011;34088;52.232;5.196;2022-09-28T01:35:39;9.57;;;5.70;;
48268;SDS011;34088;52.232;5.196;2022-09-28T01:38:21;8.90;;;5.60;;
48268;SDS011;34088;52.232;5.196;2022-09-28T01:40:53;10.05;;;5.70;;
48268;SDS011;34088;52.232;5.196;2022-09-28T01:43:24;8.45;;;5.15;;
48268;SDS011;34088;52.232;5.196;2022-09-28T01:45:53;10.20;;;5.38;;
48268;SDS011;34088;52.232;5.196;2022-09-28T01:48:34;8.98;;;5.18;;
48268;SDS011;34088;52.232;5.196;2022-09-28T01:51:07;7.22;;;4.30;;
48268;SDS011;34088;52.232;5.196;2022-09-28T01:53:38;5.63;;;4.05;;
48268;SDS011;34088;52.232;5.196;2022-09-28T01:56:11;8.05;;;4.28;;
48268;SDS011;34088;52.232;5.196;2022-09-28T01:58:47;9.75;;;4.45;;
48268;SDS011;34088;52.232;5.196;2022-09-28T02:01:25;8.40;;;3.65;;
48268;SDS011;34088;52.232;5.196;2022-09-28T02:04:15;8.70;;;3.88;;
48268;SDS011;34088;52.232;5.196;2022-09-28T02:06:46;6.70;;;3.30;;
48268;SDS011;34088;52.232;5.196;2022-09-28T02:09:31;5.82;;;3.20;;
48268;SDS011;34088;52.232;5.196;2022-09-28T02:12:12;7.60;;;3.50;;
48268;SDS011;34088;52.232;5.196;2022-09-28T02:14:42;4.82;;;2.97;;
48268;SDS011;34088;52.232;5.196;2022-09-28T02:17:09;7.40;;;2.95;;
48268;SDS011;34088;52.232;5.196;2022-09-28T02:19:34;5.80;;;2.40;;
48268;SDS011;34088;52.232;5.196;2022-09-28T02:22:08;3.85;;;2.50;;
48268;SDS011;34088;52.232;5.196;2022-09-28T02:28:10;3.53;;;1.67;;
48268;SDS011;34088;52.232;5.196;2022-09-28T02:30:30;5.32;;;1.80;;
48268;SDS011;34088;52.232;5.196;2022-09-28T02:36:08;4.65;;;1.98;;
48268;SDS011;34088;52.232;5.196;2022-09-28T02:38:35;3.70;;;1.73;;
48268;SDS011;34088;52.232;5.196;2022-09-28T02:41:02;6.28;;;2.25;;
48268;SDS011;34088;52.232;5.196;2022-09-28T02:55:55;2.33;;;1.10;;
48268;SDS011;34088;52.232;5.196;2022-09-28T03:06:58;2.38;;;1.10;;
48268;SDS011;34088;52.232;5.196;2022-09-28T03:15:32;4.60;;;1.00;;
48268;SDS011;34088;52.232;5.196;2022-09-28T03:17:59;3.25;;;1.33;;
48268;SDS011;34088;52.232;5.196;2022-09-28T03:20:26;3.38;;;1.10;;
48268;SDS011;34088;52.232;5.196;2022-09-28T03:22:53;1.83;;;1.00;;
48268;SDS011;34088;52.232;5.196;2022-09-28T03:25:19;3.85;;;1.40;;
48268;SDS011;34088;52.232;5.196;2022-09-28T03:27:44;4.32;;;1.00;;
48268;SDS011;34088;52.232;5.196;2022-09-28T03:30:11;2.60;;;0.90;;
48268;SDS011;34088;52.232;5.196;2022-09-28T03:32:37;4.00;;;0.90;;
48268;SDS011;34088;52.232;5.196;2022-09-28T03:35:05;2.15;;;0.68;;
48268;SDS011;34088;52.232;5.196;2022-09-28T03:37:32;3.22;;;0.75;;
48268;SDS011;34088;52.232;5.196;2022-09-28T03:39:58;1.48;;;0.90;;
48268;SDS011;34088;52.232;5.196;2022-09-28T03:42:23;2.40;;;0.90;;
48268;SDS011;34088;52.232;5.196;2022-09-28T03:44:49;1.63;;;1.00;;
48268;SDS011;34088;52.232;5.196;2022-09-28T03:47:15;2.53;;;0.98;;
48268;SDS011;34088;52.232;5.196;2022-09-28T03:49:42;4.05;;;0.90;;
48268;SDS011;34088;52.232;5.196;2022-09-28T03:52:09;3.08;;;0.90;;
48268;SDS011;34088;52.232;5.196;2022-09-28T03:54:35;2.65;;;0.80;;
48268;SDS011;34088;52.232;5.196;2022-09-28T03:57:01;2.70;;;0.90;;
48268;SDS011;34088;52.232;5.196;2022-09-28T03:59:26;4.78;;;1.10;;
48268;SDS011;34088;52.232;5.196;2022-09-28T04:01:52;3.03;;;0.82;;
48268;SDS011;34088;52.232;5.196;2022-09-28T04:04:18;2.25;;;1.00;;
48268;SDS011;34088;52.232;5.196;2022-09-28T04:06:44;2.88;;;1.23;;
48268;SDS011;34088;52.232;5.196;2022-09-28T04:09:09;3.97;;;1.10;;
48268;SDS011;34088;52.232;5.196;2022-09-28T04:11:36;3.97;;;0.90;;
48268;SDS011;34088;52.232;5.196;2022-09-28T04:14:01;1.23;;;0.88;;
48268;SDS011;34088;52.232;5.196;2022-09-28T04:16:27;2.20;;;1.00;;
48268;SDS011;34088;52.232;5.196;2022-09-28T04:18:53;3.78;;;0.90;;
48268;SDS011;34088;52.232;5.196;2022-09-28T04:21:19;2.83;;;1.10;;
48268;SDS011;34088;52.232;5.196;2022-09-28T04:23:45;2.45;;;1.10;;
48268;SDS011;34088;52.232;5.196;2022-09-28T04:26:18;3.72;;;1.30;;
48268;SDS011;34088;52.232;5.196;2022-09-28T04:28:48;3.47;;;1.20;;
48268;SDS011;34088;52.232;5.196;2022-09-28T04:31:36;1.63;;;1.13;;
48268;SDS011;34088;52.232;5.196;2022-09-28T04:34:04;3.08;;;1.30;;
48268;SDS011;34088;52.232;5.196;2022-09-28T04:36:30;2.55;;;1.30;;
48268;SDS011;34088;52.232;5.196;2022-09-28T04:38:56;3.72;;;1.40;;
48268;SDS011;34088;52.232;5.196;2022-09-28T04:43:47;4.05;;;1.80;;
48268;SDS011;34088;52.232;5.196;2022-09-28T04:46:14;3.70;;;1.95;;
48268;SDS011;34088;52.232;5.196;2022-09-28T04:48:39;3.30;;;1.60;;
48268;SDS011;34088;52.232;5.196;2022-09-28T04:53:31;3.42;;;1.40;;
48268;SDS011;34088;52.232;5.196;2022-09-28T04:56:01;2.85;;;1.70;;
48268;SDS011;34088;52.232;5.196;2022-09-28T04:58:35;2.57;;;1.60;;
48268;SDS011;34088;52.232;5.196;2022-09-28T05:01:03;5.20;;;1.80;;
48268;SDS011;34088;52.232;5.196;2022-09-28T05:03:31;3.70;;;1.35;;
48268;SDS011;34088;52.232;5.196;2022-09-28T05:05:58;2.88;;;1.67;;
48268;SDS011;34088;52.232;5.196;2022-09-28T05:08:23;3.10;;;1.55;;
48268;SDS011;34088;52.232;5.196;2022-09-28T05:10:57;8.77;;;2.97;;
48268;SDS011;34088;52.232;5.196;2022-09-28T05:13:25;6.15;;;2.30;;
48268;SDS011;34088;52.232;5.196;2022-09-28T05:15:53;4.28;;;2.45;;
48268;SDS011;34088;52.232;5.196;2022-09-28T05:18:20;2.70;;;1.83;;
48268;SDS011;34088;52.232;5.196;2022-09-28T05:20:46;5.80;;;2.90;;
48268;SDS011;34088;52.232;5.196;2022-09-28T05:23:12;5.28;;;4.10;;
48268;SDS011;34088;52.232;5.196;2022-09-28T05:25:39;6.03;;;5.43;;
48268;SDS011;34088;52.232;5.196;2022-09-28T05:28:06;3.65;;;2.30;;
48268;SDS011;34088;52.232;5.196;2022-09-28T05:30:32;5.28;;;3.15;;
48268;SDS011;34088;52.232;5.196;2022-09-28T05:32:59;4.05;;;2.95;;
48268;SDS011;34088;52.232;5.196;2022-09-28T05:35:25;4.05;;;2.20;;
48268;SDS011;34088;52.232;5.196;2022-09-28T05:37:50;4.85;;;2.30;;
48268;SDS011;34088;52.232;5.196;2022-09-28T05:40:16;3.50;;;2.13;;
48268;SDS011;34088;52.232;5.196;2022-09-28T05:42:43;5.28;;;2.30;;
48268;SDS011;34088;52.232;5.196;2022-09-28T05:45:08;7.68;;;2.60;;
48268;SDS011;34088;52.232;5.196;2022-09-28T05:47:38;5.72;;;2.60;;
48268;SDS011;34088;52.232;5.196;2022-09-28T05:50:07;4.45;;;2.63;;
48268;SDS011;34088;52.232;5.196;2022-09-28T05:52:39;6.43;;;2.92;;
48268;SDS011;34088;52.232;5.196;2022-09-28T05:55:06;4.72;;;2.83;;
48268;SDS011;34088;52.232;5.196;2022-09-28T05:57:32;5.20;;;2.38;;
48268;SDS011;34088;52.232;5.196;2022-09-28T05:59:58;4.28;;;2.38;;
48268;SDS011;34088;52.232;5.196;2022-09-28T06:02:24;3.38;;;2.50;;
48268;SDS011;34088;52.232;5.196;2022-09-28T06:04:49;7.13;;;2.85;;
48268;SDS011;34088;52.232;5.196;2022-09-28T06:07:18;6.85;;;2.90;;
48268;SDS011;34088;52.232;5.196;2022-09-28T06:09:45;5.40;;;2.92;;
48268;SDS011;34088;52.232;5.196;2022-09-28T06:12:11;6.97;;;2.80;;
48268;SDS011;34088;52.232;5.196;2022-09-28T06:17:03;6.10;;;3.33;;
48268;SDS011;34088;52.232;5.196;2022-09-28T06:19:28;4.97;;;2.63;;
48268;SDS011;34088;52.232;5.196;2022-09-28T06:21:54;3.63;;;2.30;;
48268;SDS011;34088;52.232;5.196;2022-09-28T06:24:20;4.25;;;2.13;;
48268;SDS011;34088;52.232;5.196;2022-09-28T06:26:46;4.63;;;2.47;;
48268;SDS011;34088;52.232;5.196;2022-09-28T06:29:12;6.07;;;2.67;;
48268;SDS011;34088;52.232;5.196;2022-09-28T06:31:43;6.22;;;3.00;;
48268;SDS011;34088;52.232;5.196;2022-09-28T06:34:09;4.40;;;3.45;;
48268;SDS011;34088;52.232;5.196;2022-09-28T06:36:36;8.60;;;4.35;;
48268;SDS011;34088;52.232;5.196;2022-09-28T06:39:02;6.10;;;3.95;;
48268;SDS011;34088;52.232;5.196;2022-09-28T06:41:28;6.80;;;3.63;;
48268;SDS011;34088;52.232;5.196;2022-09-28T06:43:54;4.95;;;2.53;;
48268;SDS011;34088;52.232;5.196;2022-09-28T06:46:20;4.82;;;2.30;;
48268;SDS011;34088;52.232;5.196;2022-09-28T07:02:26;5.75;;;2.13;;
48268;SDS011;34088;52.232;5.196;2022-09-28T07:04:52;4.03;;;2.10;;
48268;SDS011;34088;52.232;5.196;2022-09-28T07:07:17;3.28;;;1.98;;
48268;SDS011;34088;52.232;5.196;2022-09-28T07:12:09;3.13;;;1.90;;
48268;SDS011;34088;52.232;5.196;2022-09-28T07:14:37;3.92;;;1.90;;
48268;SDS011;34088;52.232;5.196;2022-09-28T07:17:03;3.95;;;1.95;;
48268;SDS011;34088;52.232;5.196;2022-09-28T07:19:32;4.18;;;1.98;;
48268;SDS011;34088;52.232;5.196;2022-09-28T07:22:00;3.33;;;1.90;;
48268;SDS011;34088;52.232;5.196;2022-09-28T07:24:26;5.90;;;1.90;;
48268;SDS011;34088;52.232;5.196;2022-09-28T07:26:53;3.42;;;1.70;;
48268;SDS011;34088;52.232;5.196;2022-09-28T07:29:19;4.65;;;1.75;;
48268;SDS011;34088;52.232;5.196;2022-09-28T07:31:45;4.32;;;1.70;;
48268;SDS011;34088;52.232;5.196;2022-09-28T07:34:10;3.15;;;1.40;;
48268;SDS011;34088;52.232;5.196;2022-09-28T07:36:36;4.05;;;1.80;;
48268;SDS011;34088;52.232;5.196;2022-09-28T07:39:02;3.10;;;1.60;;
48268;SDS011;34088;52.232;5.196;2022-09-28T07:41:29;3.05;;;1.13;;
48268;SDS011;34088;52.232;5.196;2022-09-28T07:43:58;4.40;;;1.55;;
48268;SDS011;34088;52.232;5.196;2022-09-28T07:46:36;4.53;;;1.00;;
48268;SDS011;34088;52.232;5.196;2022-09-28T07:49:02;5.25;;;1.15;;
48268;SDS011;34088;52.232;5.196;2022-09-28T07:51:29;2.60;;;0.90;;
48268;SDS011;34088;52.232;5.196;2022-09-28T07:53:55;2.85;;;1.17;;
48268;SDS011;34088;52.232;5.196;2022-09-28T07:56:21;1.98;;;1.10;;
48268;SDS011;34088;52.232;5.196;2022-09-28T07:58:47;3.08;;;1.20;;
48268;SDS011;34088;52.232;5.196;2022-09-28T08:01:14;4.78;;;1.08;;
48268;SDS011;34088;52.232;5.196;2022-09-28T08:03:40;1.98;;;1.08;;
48268;SDS011;34088;52.232;5.196;2022-09-28T08:06:09;4.57;;;1.27;;
48268;SDS011;34088;52.232;5.196;2022-09-28T08:08:36;5.20;;;1.38;;
48268;SDS011;34088;52.232;5.196;2022-09-28T08:11:08;4.85;;;1.00;;
48268;SDS011;34088;52.232;5.196;2022-09-28T08:13:40;0.93;;;0.68;;
48268;SDS011;34088;52.232;5.196;2022-09-28T08:16:08;1.67;;;0.90;;
48268;SDS011;34088;52.232;5.196;2022-09-28T08:18:34;4.22;;;1.10;;
48268;SDS011;34088;52.232;5.196;2022-09-28T08:21:00;3.33;;;1.40;;
48268;SDS011;34088;52.232;5.196;2022-09-28T08:23:45;5.70;;;1.20;;
48268;SDS011;34088;52.232;5.196;2022-09-28T08:26:11;1.88;;;0.98;;
48268;SDS011;34088;52.232;5.196;2022-09-28T08:28:37;2.08;;;0.70;;
48268;SDS011;34088;52.232;5.196;2022-09-28T08:31:03;2.15;;;0.90;;
48268;SDS011;34088;52.232;5.196;2022-09-28T08:33:31;2.28;;;0.80;;
48268;SDS011;34088;52.232;5.196;2022-09-28T08:35:58;1.65;;;0.70;;
48268;SDS011;34088;52.232;5.196;2022-09-28T08:38:26;3.25;;;0.68;;
48268;SDS011;34088;52.232;5.196;2022-09-28T08:46:20;3.00;;;0.75;;
48268;SDS011;34088;52.232;5.196;2022-09-28T08:48:57;1.17;;;0.70;;
48268;SDS011;34088;52.232;5.196;2022-09-28T08:57:02;1.58;;;0.75;;
48268;SDS011;34088;52.232;5.196;2022-09-28T08:59:39;1.95;;;0.60;;
48268;SDS011;34088;52.232;5.196;2022-09-28T09:02:15;1.95;;;0.63;;
48268;SDS011;34088;52.232;5.196;2022-09-28T09:04:46;1.48;;;0.60;;
48268;SDS011;34088;52.232;5.196;2022-09-28T09:08:02;3.15;;;0.70;;
48268;SDS011;34088;52.232;5.196;2022-09-28T09:13:19;0.90;;;0.40;;
48268;SDS011;34088;52.232;5.196;2022-09-28T09:18:48;3.08;;;0.60;;
48268;SDS011;34088;52.232;5.196;2022-09-28T09:21:40;2.85;;;1.15;;
48268;SDS011;34088;52.232;5.196;2022-09-28T09:27:03;1.20;;;0.52;;
48268;SDS011;34088;52.232;5.196;2022-09-28T09:29:39;1.33;;;0.50;;
48268;SDS011;34088;52.232;5.196;2022-09-28T09:35:24;2.65;;;0.70;;
48268;SDS011;34088;52.232;5.196;2022-09-28T09:38:17;1.95;;;0.57;;
48268;SDS011;34088;52.232;5.196;2022-09-28T09:50:36;2.58;;;0.80;;
48268;SDS011;34088;52.232;5.196;2022-09-28T09:53:14;2.47;;;0.50;;
48268;SDS011;34088;52.232;5.196;2022-09-28T09:55:55;1.67;;;0.63;;
48268;SDS011;34088;52.232;5.196;2022-09-28T09:58:37;2.47;;;0.70;;
48268;SDS011;34088;52.232;5.196;2022-09-28T10:01:12;3.30;;;0.80;;
48268;SDS011;34088;52.232;5.196;2022-09-28T10:03:41;2.97;;;0.95;;
48268;SDS011;34088;52.232;5.196;2022-09-28T10:08:43;0.80;;;0.60;;
48268;SDS011;34088;52.232;5.196;2022-09-28T10:11:14;3.40;;;0.73;;
48268;SDS011;34088;52.232;5.196;2022-09-28T10:13:45;2.15;;;0.90;;
48268;SDS011;34088;52.232;5.196;2022-09-28T10:16:13;2.63;;;0.70;;
48268;SDS011;34088;52.232;5.196;2022-09-28T10:18:41;2.90;;;0.60;;
48268;SDS011;34088;52.232;5.196;2022-09-28T10:21:10;1.42;;;0.60;;
48268;SDS011;34088;52.232;5.196;2022-09-28T10:23:38;3.03;;;0.60;;
48268;SDS011;34088;52.232;5.196;2022-09-28T10:26:06;2.92;;;0.70;;
48268;SDS011;34088;52.232;5.196;2022-09-28T10:28:39;2.35;;;0.65;;
48268;SDS011;34088;52.232;5.196;2022-09-28T10:34:15;2.65;;;0.80;;
48268;SDS011;34088;52.232;5.196;2022-09-28T10:36:44;2.05;;;0.75;;
48268;SDS011;34088;52.232;5.196;2022-09-28T10:39:35;1.23;;;0.80;;
48268;SDS011;34088;52.232;5.196;2022-09-28T10:42:08;1.55;;;0.50;;
48268;SDS011;34088;52.232;5.196;2022-09-28T10:44:50;3.15;;;0.65;;
48268;SDS011;34088;52.232;5.196;2022-09-28T10:47:18;2.10;;;0.60;;
48268;SDS011;34088;52.232;5.196;2022-09-28T10:49:46;1.45;;;0.73;;
48268;SDS011;34088;52.232;5.196;2022-09-28T10:55:17;1.27;;;0.50;;
48268;SDS011;34088;52.232;5.196;2022-09-28T10:57:56;1.50;;;0.60;;
48268;SDS011;34088;52.232;5.196;2022-09-28T11:00:33;5.45;;;1.02;;
48268;SDS011;34088;52.232;5.196;2022-09-28T11:03:16;1.75;;;0.50;;
48268;SDS011;34088;52.232;5.196;2022-09-28T11:11:05;3.75;;;0.60;;
48268;SDS011;34088;52.232;5.196;2022-09-28T11:13:38;2.42;;;0.82;;
48268;SDS011;34088;52.232;5.196;2022-09-28T11:16:34;2.50;;;0.60;;
48268;SDS011;34088;52.232;5.196;2022-09-28T11:21:55;1.42;;;0.50;;
48268;SDS011;34088;52.232;5.196;2022-09-28T11:24:21;1.27;;;0.50;;
48268;SDS011;34088;52.232;5.196;2022-09-28T11:26:50;3.60;;;0.47;;
48268;SDS011;34088;52.232;5.196;2022-09-28T11:29:36;1.58;;;0.60;;
48268;SDS011;34088;52.232;5.196;2022-09-28T11:32:10;3.03;;;0.65;;
48268;SDS011;34088;52.232;5.196;2022-09-28T11:34:37;1.30;;;0.50;;
48268;SDS011;34088;52.232;5.196;2022-09-28T11:49:06;0.68;;;0.45;;
48268;SDS011;34088;52.232;5.196;2022-09-28T11:51:43;0.70;;;0.40;;
48268;SDS011;34088;52.232;5.196;2022-09-28T11:54:19;1.55;;;0.50;;
48268;SDS011;34088;52.232;5.196;2022-09-28T11:56:52;0.90;;;0.50;;
48268;SDS011;34088;52.232;5.196;2022-09-28T11:59:31;1.38;;;0.50;;
48268;SDS011;34088;52.232;5.196;2022-09-28T12:02:10;2.65;;;0.60;;
48268;SDS011;34088;52.232;5.196;2022-09-28T12:07:53;1.95;;;0.60;;
48268;SDS011;34088;52.232;5.196;2022-09-28T12:10:58;1.35;;;0.43;;
48268;SDS011;34088;52.232;5.196;2022-09-28T12:13:34;1.55;;;0.52;;
48268;SDS011;34088;52.232;5.196;2022-09-28T12:16:16;2.20;;;0.70;;
48268;SDS011;34088;52.232;5.196;2022-09-28T12:19:04;1.70;;;0.47;;
48268;SDS011;34088;52.232;5.196;2022-09-28T12:21:39;2.35;;;0.60;;
48268;SDS011;34088;52.232;5.196;2022-09-28T12:24:23;1.80;;;0.60;;
48268;SDS011;34088;52.232;5.196;2022-09-28T12:29:37;1.42;;;0.40;;
48268;SDS011;34088;52.232;5.196;2022-09-28T12:35:18;2.22;;;0.95;;
48268;SDS011;34088;52.232;5.196;2022-09-28T12:38:27;3.08;;;0.70;;
48268;SDS011;34088;52.232;5.196;2022-09-28T12:41:22;0.85;;;0.85;;
48268;SDS011;34088;52.232;5.196;2022-09-28T12:44:23;1.25;;;0.90;;
48268;SDS011;34088;52.232;5.196;2022-09-28T12:49:53;4.07;;;1.58;;
48268;SDS011;34088;52.232;5.196;2022-09-28T12:52:55;3.33;;;1.27;;
48268;SDS011;34088;52.232;5.196;2022-09-28T12:55:30;5.07;;;1.15;;
48268;SDS011;34088;52.232;5.196;2022-09-28T13:09:32;1.35;;;0.75;;
48268;SDS011;34088;52.232;5.196;2022-09-28T13:12:23;3.58;;;1.15;;
48268;SDS011;34088;52.232;5.196;2022-09-28T13:15:26;1.50;;;0.80;;
48268;SDS011;34088;52.232;5.196;2022-09-28T13:18:28;6.85;;;1.73;;
48268;SDS011;34088;52.232;5.196;2022-09-28T13:23:42;3.00;;;0.57;;
48268;SDS011;34088;52.232;5.196;2022-09-28T13:26:12;1.63;;;0.75;;
48268;SDS011;34088;52.232;5.196;2022-09-28T13:28:49;2.83;;;0.70;;
48268;SDS011;34088;52.232;5.196;2022-09-28T13:31:26;2.25;;;0.60;;
48268;SDS011;34088;52.232;5.196;2022-09-28T13:33:56;1.27;;;0.60;;
48268;SDS011;34088;52.232;5.196;2022-09-28T13:38:58;1.67;;;0.52;;
48268;SDS011;34088;52.232;5.196;2022-09-28T13:41:28;2.03;;;0.75;;
48268;SDS011;34088;52.232;5.196;2022-09-28T13:46:34;0.98;;;0.38;;
48268;SDS011;34088;52.232;5.196;2022-09-28T14:02:40;1.00;;;0.60;;
48268;SDS011;34088;52.232;5.196;2022-09-28T14:09:05;1.75;;;0.60;;
48268;SDS011;34088;52.232;5.196;2022-09-28T14:14:04;1.77;;;0.80;;
48268;SDS011;34088;52.232;5.196;2022-09-28T14:16:38;1.50;;;0.70;;
48268;SDS011;34088;52.232;5.196;2022-09-28T14:21:57;2.08;;;0.77;;
48268;SDS011;34088;52.232;5.196;2022-09-28T14:30:53;2.72;;;0.80;;
48268;SDS011;34088;52.232;5.196;2022-09-28T14:33:26;1.63;;;0.80;;
48268;SDS011;34088;52.232;5.196;2022-09-28T14:36:01;2.72;;;1.08;;
48268;SDS011;34088;52.232;5.196;2022-09-28T14:39:04;5.35;;;1.52;;
48268;SDS011;34088;52.232;5.196;2022-09-28T14:42:14;7.82;;;2.30;;
48268;SDS011;34088;52.232;5.196;2022-09-28T14:47:33;6.43;;;1.60;;
48268;SDS011;34088;52.232;5.196;2022-09-28T14:50:22;2.80;;;1.20;;
48268;SDS011;34088;52.232;5.196;2022-09-28T14:52:50;4.80;;;1.50;;
48268;SDS011;34088;52.232;5.196;2022-09-28T14:55:20;4.10;;;1.63;;
48268;SDS011;34088;52.232;5.196;2022-09-28T14:57:55;3.83;;;1.98;;
48268;SDS011;34088;52.232;5.196;2022-09-28T15:00:23;4.60;;;2.38;;
48268;SDS011;34088;52.232;5.196;2022-09-28T15:02:53;3.67;;;2.00;;
48268;SDS011;34088;52.232;5.196;2022-09-28T15:05:27;4.55;;;2.00;;
48268;SDS011;34088;52.232;5.196;2022-09-28T15:07:56;3.85;;;1.30;;
48268;SDS011;34088;52.232;5.196;2022-09-28T15:10:30;2.05;;;1.08;;
48268;SDS011;34088;52.232;5.196;2022-09-28T15:12:59;3.17;;;1.20;;
48268;SDS011;34088;52.232;5.196;2022-09-28T15:15:35;2.83;;;1.30;;
48268;SDS011;34088;52.232;5.196;2022-09-28T15:20:59;1.67;;;0.98;;
48268;SDS011;34088;52.232;5.196;2022-09-28T15:23:26;1.77;;;1.10;;
48268;SDS011;34088;52.232;5.196;2022-09-28T15:25:57;1.38;;;0.70;;
48268;SDS011;34088;52.232;5.196;2022-09-28T15:28:23;2.10;;;0.80;;
48268;SDS011;34088;52.232;5.196;2022-09-28T15:30:49;2.35;;;1.38;;
48268;SDS011;34088;52.232;5.196;2022-09-28T15:33:22;4.88;;;1.60;;
48268;SDS011;34088;52.232;5.196;2022-09-28T15:36:11;2.85;;;1.60;;
48268;SDS011;34088;52.232;5.196;2022-09-28T15:41:29;2.22;;;1.50;;
48268;SDS011;34088;52.232;5.196;2022-09-28T15:46:42;4.43;;;1.98;;
48268;SDS011;34088;52.232;5.196;2022-09-28T15:49:22;2.90;;;1.40;;
48268;SDS011;34088;52.232;5.196;2022-09-28T15:52:19;1.92;;;1.20;;
48268;SDS011;34088;52.232;5.196;2022-09-28T15:55:16;4.85;;;1.38;;
48268;SDS011;34088;52.232;5.196;2022-09-28T16:00:36;2.45;;;1.52;;
48268;SDS011;34088;52.232;5.196;2022-09-28T16:03:18;3.60;;;1.65;;
48268;SDS011;34088;52.232;5.196;2022-09-28T16:11:11;3.78;;;2.30;;
48268;SDS011;34088;52.232;5.196;2022-09-28T16:13:56;4.15;;;2.20;;
48268;SDS011;34088;52.232;5.196;2022-09-28T16:16:33;3.72;;;1.88;;
48268;SDS011;34088;52.232;5.196;2022-09-28T16:22:01;3.28;;;1.90;;
48268;SDS011;34088;52.232;5.196;2022-09-28T16:24:32;3.58;;;1.30;;
48268;SDS011;34088;52.232;5.196;2022-09-28T16:29:38;3.28;;;1.63;;
48268;SDS011;34088;52.232;5.196;2022-09-28T16:37:38;2.53;;;2.10;;
48268;SDS011;34088;52.232;5.196;2022-09-28T16:40:07;2.42;;;1.88;;
48268;SDS011;34088;52.232;5.196;2022-09-28T16:42:34;3.58;;;1.85;;
48268;SDS011;34088;52.232;5.196;2022-09-28T16:45:00;4.88;;;2.55;;
48268;SDS011;34088;52.232;5.196;2022-09-28T16:47:29;3.63;;;2.90;;
48268;SDS011;34088;52.232;5.196;2022-09-28T16:49:58;5.25;;;3.58;;
48268;SDS011;34088;52.232;5.196;2022-09-28T16:52:26;8.25;;;4.70;;
48268;SDS011;34088;52.232;5.196;2022-09-28T16:55:10;6.30;;;4.45;;
48268;SDS011;34088;52.232;5.196;2022-09-28T16:57:40;10.77;;;5.68;;
48268;SDS011;34088;52.232;5.196;2022-09-28T17:00:14;9.02;;;5.72;;
48268;SDS011;34088;52.232;5.196;2022-09-28T17:02:51;6.38;;;5.30;;
48268;SDS011;34088;52.232;5.196;2022-09-28T17:05:20;7.82;;;4.85;;
48268;SDS011;34088;52.232;5.196;2022-09-28T17:07:53;6.00;;;4.18;;
48268;SDS011;34088;52.232;5.196;2022-09-28T17:11:11;5.30;;;4.03;;
48268;SDS011;34088;52.232;5.196;2022-09-28T17:13:22;7.90;;;5.88;;
48268;SDS011;34088;52.232;5.196;2022-09-28T17:15:55;7.60;;;5.43;;
48268;SDS011;34088;52.232;5.196;2022-09-28T17:18:22;6.25;;;5.20;;
48268;SDS011;34088;52.232;5.196;2022-09-28T17:20:49;9.20;;;6.53;;
48268;SDS011;34088;52.232;5.196;2022-09-28T17:23:17;9.82;;;7.03;;
48268;SDS011;34088;52.232;5.196;2022-09-28T17:25:43;12.43;;;9.55;;
48268;SDS011;34088;52.232;5.196;2022-09-28T17:28:25;17.70;;;12.38;;
48268;SDS011;34088;52.232;5.196;2022-09-28T17:31:01;16.27;;;11.90;;
48268;SDS011;34088;52.232;5.196;2022-09-28T17:33:28;17.63;;;12.82;;
48268;SDS011;34088;52.232;5.196;2022-09-28T17:36:00;27.65;;;18.42;;
48268;SDS011;34088;52.232;5.196;2022-09-28T17:38:28;36.45;;;23.70;;
48268;SDS011;34088;52.232;5.196;2022-09-28T17:40:54;33.92;;;23.98;;
48268;SDS011;34088;52.232;5.196;2022-09-28T17:43:20;29.85;;;20.65;;
48268;SDS011;34088;52.232;5.196;2022-09-28T17:45:46;44.28;;;26.27;;
48268;SDS011;34088;52.232;5.196;2022-09-28T17:48:13;40.13;;;30.67;;
48268;SDS011;34088;52.232;5.196;2022-09-28T17:50:41;28.17;;;21.67;;
48268;SDS011;34088;52.232;5.196;2022-09-28T17:53:09;14.88;;;12.30;;
48268;SDS011;34088;52.232;5.196;2022-09-28T17:55:35;15.15;;;12.90;;
48268;SDS011;34088;52.232;5.196;2022-09-28T18:00:45;9.13;;;7.03;;
48268;SDS011;34088;52.232;5.196;2022-09-28T18:03:15;9.70;;;7.68;;
48268;SDS011;34088;52.232;5.196;2022-09-28T18:05:45;6.00;;;5.10;;
48268;SDS011;34088;52.232;5.196;2022-09-28T18:08:17;5.15;;;3.03;;
48268;SDS011;34088;52.232;5.196;2022-09-28T18:10:44;5.30;;;4.00;;
48268;SDS011;34088;52.232;5.196;2022-09-28T18:13:11;5.55;;;2.80;;
48268;SDS011;34088;52.232;5.196;2022-09-28T18:15:38;3.28;;;2.60;;
48268;SDS011;34088;52.232;5.196;2022-09-28T18:18:03;4.28;;;2.90;;
48268;SDS011;34088;52.232;5.196;2022-09-28T18:20:29;5.25;;;3.10;;
48268;SDS011;34088;52.232;5.196;2022-09-28T18:22:55;4.68;;;3.05;;
48268;SDS011;34088;52.232;5.196;2022-09-28T18:25:21;4.82;;;2.90;;
48268;SDS011;34088;52.232;5.196;2022-09-28T18:27:47;5.95;;;3.28;;
48268;SDS011;34088;52.232;5.196;2022-09-28T18:30:13;3.83;;;3.00;;
48268;SDS011;34088;52.232;5.196;2022-09-28T18:32:39;4.65;;;2.85;;
48268;SDS011;34088;52.232;5.196;2022-09-28T18:35:05;6.70;;;4.97;;
48268;SDS011;34088;52.232;5.196;2022-09-28T18:37:38;14.05;;;8.23;;
48268;SDS011;34088;52.232;5.196;2022-09-28T18:40:05;8.93;;;5.82;;
48268;SDS011;34088;52.232;5.196;2022-09-28T18:42:33;12.63;;;8.10;;
48268;SDS011;34088;52.232;5.196;2022-09-28T18:44:59;9.85;;;6.90;;
48268;SDS011;34088;52.232;5.196;2022-09-28T18:47:30;5.22;;;3.97;;
48268;SDS011;34088;52.232;5.196;2022-09-28T18:49:57;6.90;;;4.88;;
48268;SDS011;34088;52.232;5.196;2022-09-28T18:52:23;5.97;;;5.38;;
48268;SDS011;34088;52.232;5.196;2022-09-28T18:54:50;7.75;;;5.20;;